Deer Lodge, MT (59722)

6:54 PM MDT on May 29, 2015 (GMT -0600)
IC Catholic Church | | Change Station
CLOSE
Current Station
Personal Weather Station
Location: Deer Lodge, MT
Elevation: 4570 ft
Nearby Weather Stations

Elev 4570 ft 46.40 °N, 112.73 °W | Updated 13 minutes ago

Partly Cloudy
Partly Cloudy
71.1 °F
Feels Like 77 °F
N
3.7
Wind Variable Wind from SSW

Today
High -- | Low -- °F
--% Chance of Precip.
Yesterday
High -- | Low -- °F
Precip. -- in
5:44 AM 9:12 PM
Waxing Gibbous, 87% visible
Pressure 30.05 in
Visibility 10.0 miles
Clouds Few 8000 ft
Scattered Clouds 11000 ft
Heat Index 77 °F
Dew Point 46 °F
Humidity 40%
Rainfall 0.00 in
Snow Depth Not available.
UV 3 out of 12
Pollen 5.70 out of 12
Air Quality Not available.
Flu Activity Sporadic
METAR KBTM 292353Z AUTO 12008KT 10SM FEW080 SCT110 18/06 A3013 RMK AO2 LTG DSNT W SLP174 T01830061 10200 20150 56014

More Conditions Fewer Conditions

Pressure 30.05 in
Visibility 10.0 miles
Clouds Few 8000 ft
Scattered Clouds 11000 ft
Heat Index 77 °F
Dew Point 46 °F
Humidity 40%
Rainfall 0.00 in
Snow Depth Not available.
UV 3 out of 12
Pollen 5.70 out of 12
Air Quality Not available.
Flu Activity Sporadic
METAR KBTM 292353Z AUTO 12008KT 10SM FEW080 SCT110 18/06 A3013 RMK AO2 LTG DSNT W SLP174 T01830061 10200 20150 56014

More Conditions Fewer Conditions

10-Day Weather Forecast

Almanac

Astronomy

May. 29, 2015 Rise Set
Actual Time
Civil Twilight
Nautical Twilight
Astronomical Twilight
Moon
Length of Visible Light
Length of Day
Tomorrow will be .
, % of the Moon is Illuminated

Today's Extremes

State Highs State Lows

Community

WunderPhotos

Upload Photos

1,825,411 photos uploaded!

WunderBlogs® & News

Nearby

Air Quality

  Air Quality AQ Index Pollutant
Not available.

Snow Depth

Station Depth Elevation

Earthquake Activity

City Distance Mag. Time & Date
Minimum magnitude displayed is 2.5.

Coastal Water Temperatures

Place Temperature

Stations

Nearby Weather Stations

Station Location Temp. Windchill Dew Point Humidity Wind Precip. Elev Updated Type